createdAt,value
2023-02-01T00:00:28.989Z,18.11
2023-02-01T00:05:58.486Z,18.11
2023-02-01T00:11:20.227Z,18.04
2023-02-01T00:16:42.113Z,18.02
2023-02-01T00:22:03.825Z,17.99
2023-02-01T00:27:25.568Z,17.96
2023-02-01T00:32:47.281Z,17.92
2023-02-01T00:38:09.014Z,17.90
2023-02-01T00:43:32.602Z,17.87
2023-02-01T00:48:54.856Z,17.83
2023-02-01T00:54:16.650Z,17.81
2023-02-01T00:59:38.395Z,17.78
2023-02-01T01:05:00.130Z,17.76
2023-02-01T01:10:22.436Z,17.74
2023-02-01T01:15:44.423Z,17.72
2023-02-01T01:21:07.759Z,17.69
2023-02-01T01:26:31.070Z,17.66
2023-02-01T01:31:52.886Z,17.64
2023-02-01T01:37:14.576Z,17.60
2023-02-01T01:42:40.575Z,17.59
2023-02-01T01:48:19.968Z,17.59
2023-02-01T01:54:02.745Z,17.56
2023-02-01T01:59:25.662Z,17.52
2023-02-01T02:04:48.576Z,17.51
2023-02-01T02:10:12.333Z,17.48
2023-02-01T02:15:35.232Z,17.46
2023-02-01T02:21:24.869Z,17.47
2023-02-01T02:26:57.512Z,17.44
2023-02-01T02:32:46.943Z,17.43
2023-02-01T02:38:43.244Z,17.41
2023-02-01T02:44:52.195Z,17.39
2023-02-01T02:50:46.387Z,17.36
2023-02-01T02:56:29.419Z,17.33
2023-02-01T03:02:09.662Z,17.31
2023-02-01T03:08:05.341Z,17.31
2023-02-01T03:13:52.024Z,17.29
2023-02-01T03:19:31.350Z,17.27
2023-02-01T03:24:56.479Z,17.24
2023-02-01T03:30:24.633Z,17.23
2023-02-01T03:36:13.645Z,17.22
2023-02-01T03:42:10.776Z,17.21
2023-02-01T03:47:38.914Z,17.19
2023-02-01T03:53:07.266Z,17.18
2023-02-01T03:58:29.091Z,17.16
2023-02-01T04:03:52.530Z,17.15
2023-02-01T04:09:14.273Z,17.14
2023-02-01T04:14:36.030Z,17.13
2023-02-01T04:19:57.827Z,17.11
2023-02-01T04:25:19.825Z,17.10
2023-02-01T04:30:41.948Z,17.08
2023-02-01T04:36:03.795Z,17.07
2023-02-01T04:41:25.806Z,17.06
2023-02-01T04:46:48.294Z,17.04
2023-02-01T04:52:10.457Z,17.03
2023-02-01T04:57:32.218Z,17.02
2023-02-01T05:02:53.919Z,17.01
2023-02-01T05:08:15.888Z,17.00
2023-02-01T05:13:49.816Z,16.99
2023-02-01T05:19:11.619Z,16.97
2023-02-01T05:24:33.372Z,16.96
2023-02-01T05:29:55.242Z,16.92
2023-02-01T05:35:17.070Z,16.91
2023-02-01T05:40:38.792Z,16.90
2023-02-01T05:46:00.675Z,16.88
2023-02-01T05:51:22.624Z,16.88
2023-02-01T05:56:44.321Z,16.88
2023-02-01T06:02:06.067Z,16.86
2023-02-01T06:07:29.637Z,16.89
2023-02-01T06:12:51.587Z,17.17
2023-02-01T06:18:13.478Z,17.49
2023-02-01T06:23:36.100Z,17.84
2023-02-01T06:28:57.875Z,18.23
2023-02-01T06:34:22.121Z,18.72
2023-02-01T06:39:44.011Z,19.17
2023-02-01T06:45:07.848Z,19.53
2023-02-01T06:50:29.777Z,19.73
2023-02-01T06:56:03.494Z,19.74
2023-02-01T07:01:25.211Z,19.60
2023-02-01T07:06:47.061Z,19.44
2023-02-01T07:12:08.814Z,19.28
2023-02-01T07:17:30.726Z,19.09
2023-02-01T07:22:58.705Z,18.95
2023-02-01T07:28:20.600Z,18.77
2023-02-01T07:33:42.996Z,18.66
2023-02-01T07:39:05.155Z,18.55
2023-02-01T07:44:26.917Z,18.60
2023-02-01T07:49:48.678Z,18.84
2023-02-01T07:55:10.473Z,19.28
2023-02-01T08:00:51.088Z,19.69
2023-02-01T08:06:12.956Z,20.05
2023-02-01T08:11:37.686Z,20.32
2023-02-01T08:16:59.679Z,20.52
2023-02-01T08:22:21.635Z,20.71
2023-02-01T08:27:43.394Z,20.84
2023-02-01T08:33:09.403Z,20.98
2023-02-01T08:38:31.179Z,20.98
2023-02-01T08:43:55.479Z,20.89
2023-02-01T08:49:17.164Z,20.72
2023-02-01T08:54:40.548Z,20.54
2023-02-01T09:00:02.604Z,20.35
2023-02-01T09:05:35.056Z,20.14
2023-02-01T09:11:04.741Z,19.95
2023-02-01T09:16:27.096Z,19.79
2023-02-01T09:21:48.774Z,19.66
2023-02-01T09:27:10.576Z,19.52
2023-02-01T09:32:32.290Z,19.42
2023-02-01T09:37:54.662Z,19.34
2023-02-01T09:43:26.731Z,19.30
2023-02-01T09:48:50.602Z,19.23
2023-02-01T09:54:22.916Z,19.24
2023-02-01T09:59:48.672Z,19.21
2023-02-01T10:05:16.534Z,19.20
2023-02-01T10:10:50.692Z,19.17
2023-02-01T10:16:15.524Z,19.14
2023-02-01T10:21:55.955Z,19.14
2023-02-01T10:27:36.595Z,19.11
2023-02-01T10:33:15.337Z,19.07
2023-02-01T10:38:37.103Z,19.04
2023-02-01T10:44:01.014Z,19.04
2023-02-01T10:49:53.817Z,19.02
2023-02-01T10:55:39.966Z,19.01
2023-02-01T11:01:09.132Z,18.96
2023-02-01T11:06:49.031Z,18.97
2023-02-01T11:12:40.104Z,18.96
2023-02-01T11:18:17.912Z,18.95
2023-02-01T11:23:45.932Z,18.92
2023-02-01T11:29:14.739Z,18.90
2023-02-01T11:34:56.878Z,18.87
2023-02-01T11:40:18.659Z,18.82
2023-02-01T11:45:40.905Z,18.80
2023-02-01T11:51:24.347Z,18.80
2023-02-01T11:57:21.187Z,18.79
2023-02-01T12:03:13.468Z,18.80
2023-02-01T12:08:54.675Z,18.77
2023-02-01T12:14:47.029Z,18.78
2023-02-01T12:20:46.642Z,18.76
2023-02-01T12:26:30.244Z,18.75
2023-02-01T12:32:08.808Z,18.73
2023-02-01T12:37:42.269Z,18.73
2023-02-01T12:43:26.980Z,18.80
2023-02-01T12:49:13.175Z,18.87
2023-02-01T13:00:23.580Z,18.94
2023-02-01T13:05:56.114Z,18.97
2023-02-01T13:11:34.353Z,18.99
2023-02-01T13:17:28.990Z,18.96
2023-02-01T13:23:18.794Z,18.97
2023-02-01T13:29:05.950Z,18.96
2023-02-01T13:34:47.624Z,18.91
2023-02-01T13:40:46.664Z,18.85
2023-02-01T13:46:14.588Z,18.81
2023-02-01T13:51:49.270Z,18.77
2023-02-01T13:57:37.674Z,18.74
2023-02-01T14:03:02.264Z,18.73
2023-02-01T14:08:38.368Z,18.70
2023-02-01T14:14:08.366Z,18.68
2023-02-01T14:19:34.603Z,18.70
2023-02-01T14:24:58.139Z,18.69
2023-02-01T14:30:20.686Z,18.70
2023-02-01T14:35:42.550Z,18.69
2023-02-01T14:41:34.394Z,18.70
2023-02-01T14:47:27.044Z,18.73
2023-02-01T14:53:16.553Z,18.73
2023-02-01T14:58:42.357Z,18.70
2023-02-01T15:04:19.534Z,18.68
2023-02-01T15:09:47.078Z,18.68
2023-02-01T15:15:18.542Z,18.67
2023-02-01T15:20:40.232Z,18.66
2023-02-01T15:26:33.186Z,18.68
2023-02-01T15:31:55.313Z,18.67
2023-02-01T15:37:19.610Z,18.67
2023-02-01T15:42:54.410Z,18.68
2023-02-01T15:48:23.740Z,18.69
2023-02-01T15:53:58.111Z,18.69
2023-02-01T15:59:23.916Z,18.69
2023-02-01T16:04:52.397Z,18.70
2023-02-01T16:10:28.495Z,18.71
2023-02-01T16:15:50.601Z,18.65
2023-02-01T16:21:13.047Z,18.68
2023-02-01T16:26:35.481Z,18.67
2023-02-01T16:31:57.332Z,18.61
2023-02-01T16:37:24.117Z,18.57
2023-02-01T16:42:49.004Z,18.60
2023-02-01T16:48:20.427Z,18.73
2023-02-01T16:53:53.890Z,18.89
2023-02-01T16:59:16.595Z,19.06
2023-02-01T17:04:38.489Z,19.21
2023-02-01T17:10:00.425Z,19.34
2023-02-01T17:15:22.515Z,19.45
2023-02-01T17:20:44.810Z,19.54
2023-02-01T17:26:10.727Z,19.63
2023-02-01T17:31:37.336Z,19.67
2023-02-01T17:36:59.172Z,19.70
2023-02-01T17:42:21.254Z,19.68
2023-02-01T17:47:42.963Z,19.61
2023-02-01T17:53:10.072Z,19.53
2023-02-01T17:58:33.720Z,19.43
2023-02-01T18:03:55.527Z,19.36
2023-02-01T18:09:17.319Z,19.28
2023-02-01T18:14:38.987Z,19.20
2023-02-01T18:20:00.796Z,19.11
2023-02-01T18:25:25.785Z,19.11
2023-02-01T18:30:51.013Z,19.36
2023-02-01T18:36:13.464Z,19.83
2023-02-01T18:41:35.382Z,20.31
2023-02-01T18:46:57.430Z,20.69
2023-02-01T18:52:19.087Z,21.00
2023-02-01T18:57:41.204Z,21.15
2023-02-01T19:03:02.971Z,21.13
2023-02-01T19:08:25.961Z,21.04
2023-02-01T19:13:50.670Z,20.89
2023-02-01T19:19:12.339Z,20.74
2023-02-01T19:24:34.017Z,20.59
2023-02-01T19:29:55.888Z,20.42
2023-02-01T19:35:22.483Z,20.35
2023-02-01T19:40:44.944Z,20.36
2023-02-01T19:46:06.770Z,20.42
2023-02-01T19:51:28.494Z,20.50
2023-02-01T19:56:51.261Z,20.69
2023-02-01T20:02:15.712Z,21.01
2023-02-01T20:07:37.724Z,21.30
2023-02-01T20:12:59.591Z,21.55
2023-02-01T20:18:21.619Z,21.76
2023-02-01T20:23:46.430Z,21.85
2023-02-01T20:29:09.593Z,21.78
2023-02-01T20:34:31.323Z,21.64
2023-02-01T20:39:53.117Z,21.47
2023-02-01T20:45:18.017Z,21.36
2023-02-01T20:50:40.009Z,21.33
2023-02-01T20:56:01.798Z,21.51
2023-02-01T21:01:23.515Z,21.76
2023-02-01T21:06:45.708Z,21.98
2023-02-01T21:12:07.757Z,22.04
2023-02-01T21:17:33.337Z,22.00
2023-02-01T21:22:55.753Z,21.94
2023-02-01T21:28:17.488Z,21.90
2023-02-01T21:33:39.606Z,21.87
2023-02-01T21:39:05.984Z,21.81
2023-02-01T21:44:27.790Z,21.70
2023-02-01T21:49:49.628Z,21.57
2023-02-01T21:55:13.492Z,21.41
2023-02-01T22:00:35.221Z,21.24
2023-02-01T22:05:57.011Z,21.07
2023-02-01T22:11:19.104Z,20.92
2023-02-01T22:16:41.750Z,20.77
2023-02-01T22:22:03.535Z,20.64
2023-02-01T22:27:30.490Z,20.51
2023-02-01T22:33:06.992Z,20.39
2023-02-01T22:38:33.339Z,20.28
2023-02-01T22:43:55.147Z,20.17
2023-02-01T22:49:17.395Z,20.10
2023-02-01T22:54:40.284Z,20.01
2023-02-01T23:00:02.104Z,19.92
2023-02-01T23:05:24.043Z,19.84
2023-02-01T23:10:45.906Z,19.75
2023-02-01T23:16:10.315Z,19.65
2023-02-01T23:21:32.859Z,19.60
2023-02-01T23:26:54.753Z,19.53
2023-02-01T23:32:17.404Z,19.49
2023-02-01T23:37:40.921Z,19.44
2023-02-01T23:43:21.509Z,19.38
2023-02-01T23:48:44.730Z,19.34
2023-02-01T23:54:07.988Z,19.31
2023-02-01T23:59:32.196Z,19.26
